sensor_id;sensor_type;location;lat;lon;timestamp;temperature;humidity
70368;DHT22;57789;53.868;10.728;2023-05-10T00:02:07;12.60;99.90
70368;DHT22;57789;53.868;10.728;2023-05-10T00:04:36;12.50;99.90
70368;DHT22;57789;53.868;10.728;2023-05-10T00:07:01;12.50;99.90
70368;DHT22;57789;53.868;10.728;2023-05-10T00:09:27;12.50;99.90
70368;DHT22;57789;53.868;10.728;2023-05-10T00:11:53;12.40;99.90
70368;DHT22;57789;53.868;10.728;2023-05-10T00:14:19;12.40;99.90
70368;DHT22;57789;53.868;10.728;2023-05-10T00:16:45;12.40;99.90
70368;DHT22;57789;53.868;10.728;2023-05-10T00:19:11;12.30;99.90
70368;DHT22;57789;53.868;10.728;2023-05-10T00:21:36;12.40;99.90
70368;DHT22;57789;53.868;10.728;2023-05-10T00:24:02;12.30;99.90
70368;DHT22;57789;53.868;10.728;2023-05-10T00:26:28;12.30;99.90
70368;DHT22;57789;53.868;10.728;2023-05-10T00:28:54;12.30;99.90
70368;DHT22;57789;53.868;10.728;2023-05-10T00:31:20;12.20;99.90
70368;DHT22;57789;53.868;10.728;2023-05-10T00:33:45;12.20;99.90
70368;DHT22;57789;53.868;10.728;2023-05-10T00:36:13;12.20;99.90
70368;DHT22;57789;53.868;10.728;2023-05-10T00:38:38;12.20;99.90
70368;DHT22;57789;53.868;10.728;2023-05-10T00:41:04;12.10;99.90
70368;DHT22;57789;53.868;10.728;2023-05-10T00:43:30;12.20;99.90
70368;DHT22;57789;53.868;10.728;2023-05-10T00:45:55;12.20;99.90
70368;DHT22;57789;53.868;10.728;2023-05-10T00:48:21;12.10;99.90
70368;DHT22;57789;53.868;10.728;2023-05-10T00:50:47;12.10;99.90
70368;DHT22;57789;53.868;10.728;2023-05-10T00:53:14;12.10;99.90
70368;DHT22;57789;53.868;10.728;2023-05-10T00:55:40;12.10;99.90
70368;DHT22;57789;53.868;10.728;2023-05-10T00:58:06;12.00;99.90
70368;DHT22;57789;53.868;10.728;2023-05-10T01:00:33;12.00;99.90
70368;DHT22;57789;53.868;10.728;2023-05-10T01:02:59;12.00;99.90
70368;DHT22;57789;53.868;10.728;2023-05-10T01:05:25;12.00;99.90
70368;DHT22;57789;53.868;10.728;2023-05-10T01:07:52;12.00;99.90
70368;DHT22;57789;53.868;10.728;2023-05-10T01:10:18;12.00;99.90
70368;DHT22;57789;53.868;10.728;2023-05-10T01:12:46;12.00;99.90
70368;DHT22;57789;53.868;10.728;2023-05-10T01:15:13;11.90;99.90
70368;DHT22;57789;53.868;10.728;2023-05-10T01:17:42;11.90;99.90
70368;DHT22;57789;53.868;10.728;2023-05-10T01:20:10;11.90;99.90
70368;DHT22;57789;53.868;10.728;2023-05-10T01:23:07;11.90;99.90
70368;DHT22;57789;53.868;10.728;2023-05-10T01:25:54;11.80;99.90
70368;DHT22;57789;53.868;10.728;2023-05-10T01:33:55;11.70;99.90
70368;DHT22;57789;53.868;10.728;2023-05-10T01:36:31;11.70;99.90
70368;DHT22;57789;53.868;10.728;2023-05-10T01:39:15;11.70;99.90
70368;DHT22;57789;53.868;10.728;2023-05-10T01:42:25;11.70;99.90
70368;DHT22;57789;53.868;10.728;2023-05-10T01:44:44;11.70;99.90
70368;DHT22;57789;53.868;10.728;2023-05-10T01:47:40;11.70;99.90
70368;DHT22;57789;53.868;10.728;2023-05-10T01:50:14;11.70;99.90
70368;DHT22;57789;53.868;10.728;2023-05-10T01:52:49;11.70;99.90
70368;DHT22;57789;53.868;10.728;2023-05-10T01:55:19;11.70;99.90
70368;DHT22;57789;53.868;10.728;2023-05-10T01:57:49;11.70;99.90
70368;DHT22;57789;53.868;10.728;2023-05-10T02:00:17;11.60;99.90
70368;DHT22;57789;53.868;10.728;2023-05-10T02:02:48;11.60;99.90
70368;DHT22;57789;53.868;10.728;2023-05-10T02:05:16;11.60;99.90
70368;DHT22;57789;53.868;10.728;2023-05-10T02:07:43;11.60;99.90
70368;DHT22;57789;53.868;10.728;2023-05-10T02:10:11;11.60;99.90
70368;DHT22;57789;53.868;10.728;2023-05-10T02:12:41;11.50;99.90
70368;DHT22;57789;53.868;10.728;2023-05-10T02:15:08;11.50;99.90
70368;DHT22;57789;53.868;10.728;2023-05-10T02:17:35;11.50;99.90
70368;DHT22;57789;53.868;10.728;2023-05-10T02:20:03;11.50;99.90
70368;DHT22;57789;53.868;10.728;2023-05-10T02:22:31;11.50;99.90
70368;DHT22;57789;53.868;10.728;2023-05-10T02:24:59;11.40;99.90
70368;DHT22;57789;53.868;10.728;2023-05-10T02:27:27;11.40;99.90
70368;DHT22;57789;53.868;10.728;2023-05-10T02:29:55;11.40;99.90
70368;DHT22;57789;53.868;10.728;2023-05-10T02:32:23;11.30;99.90
70368;DHT22;57789;53.868;10.728;2023-05-10T02:34:50;11.30;99.90
70368;DHT22;57789;53.868;10.728;2023-05-10T02:37:19;11.30;99.90
70368;DHT22;57789;53.868;10.728;2023-05-10T02:39:55;11.20;99.90
70368;DHT22;57789;53.868;10.728;2023-05-10T02:42:33;11.20;99.90
70368;DHT22;57789;53.868;10.728;2023-05-10T02:45:01;11.20;99.90
70368;DHT22;57789;53.868;10.728;2023-05-10T02:47:29;11.20;99.90
70368;DHT22;57789;53.868;10.728;2023-05-10T02:49:55;11.20;99.90
70368;DHT22;57789;53.868;10.728;2023-05-10T02:52:32;11.10;99.90
70368;DHT22;57789;53.868;10.728;2023-05-10T02:55:03;11.10;99.90
70368;DHT22;57789;53.868;10.728;2023-05-10T02:57:34;11.10;99.90
70368;DHT22;57789;53.868;10.728;2023-05-10T03:00:04;11.10;99.90
70368;DHT22;57789;53.868;10.728;2023-05-10T03:02:30;11.10;99.90
70368;DHT22;57789;53.868;10.728;2023-05-10T03:04:56;11.00;99.90
70368;DHT22;57789;53.868;10.728;2023-05-10T03:07:22;11.00;99.90
70368;DHT22;57789;53.868;10.728;2023-05-10T03:09:49;11.00;99.90
70368;DHT22;57789;53.868;10.728;2023-05-10T03:13:01;11.00;99.90
70368;DHT22;57789;53.868;10.728;2023-05-10T03:15:58;10.90;99.90
70368;DHT22;57789;53.868;10.728;2023-05-10T03:18:34;10.90;99.90
70368;DHT22;57789;53.868;10.728;2023-05-10T03:21:04;10.90;99.90
70368;DHT22;57789;53.868;10.728;2023-05-10T03:23:35;10.80;99.90
70368;DHT22;57789;53.868;10.728;2023-05-10T03:26:01;10.80;99.90
70368;DHT22;57789;53.868;10.728;2023-05-10T03:28:28;10.80;99.90
70368;DHT22;57789;53.868;10.728;2023-05-10T03:30:55;10.80;99.90
70368;DHT22;57789;53.868;10.728;2023-05-10T03:33:21;10.80;99.90
70368;DHT22;57789;53.868;10.728;2023-05-10T03:35:48;10.80;99.90
70368;DHT22;57789;53.868;10.728;2023-05-10T03:38:13;10.80;99.90
70368;DHT22;57789;53.868;10.728;2023-05-10T03:40:39;10.80;99.90
70368;DHT22;57789;53.868;10.728;2023-05-10T03:43:05;10.80;99.90
70368;DHT22;57789;53.868;10.728;2023-05-10T03:45:31;10.80;99.90
70368;DHT22;57789;53.868;10.728;2023-05-10T03:47:58;10.80;99.90
70368;DHT22;57789;53.868;10.728;2023-05-10T03:50:24;10.70;99.90
70368;DHT22;57789;53.868;10.728;2023-05-10T03:52:49;10.80;99.90
70368;DHT22;57789;53.868;10.728;2023-05-10T03:55:15;10.80;99.90
70368;DHT22;57789;53.868;10.728;2023-05-10T03:57:41;10.80;99.90
70368;DHT22;57789;53.868;10.728;2023-05-10T04:00:08;10.80;99.90
70368;DHT22;57789;53.868;10.728;2023-05-10T04:02:34;10.80;99.90
70368;DHT22;57789;53.868;10.728;2023-05-10T04:05:00;10.90;99.90
70368;DHT22;57789;53.868;10.728;2023-05-10T04:07:26;10.90;99.90
70368;DHT22;57789;53.868;10.728;2023-05-10T04:09:53;10.90;99.90
70368;DHT22;57789;53.868;10.728;2023-05-10T04:12:18;11.00;99.90
70368;DHT22;57789;53.868;10.728;2023-05-10T04:14:44;11.00;99.90
70368;DHT22;57789;53.868;10.728;2023-05-10T04:17:10;11.10;99.90
70368;DHT22;57789;53.868;10.728;2023-05-10T04:19:36;11.10;99.90
70368;DHT22;57789;53.868;10.728;2023-05-10T04:22:02;11.20;99.90
70368;DHT22;57789;53.868;10.728;2023-05-10T04:24:28;11.20;99.90
70368;DHT22;57789;53.868;10.728;2023-05-10T04:26:55;11.30;99.90
70368;DHT22;57789;53.868;10.728;2023-05-10T04:29:22;11.40;99.90
70368;DHT22;57789;53.868;10.728;2023-05-10T04:31:48;11.40;99.90
70368;DHT22;57789;53.868;10.728;2023-05-10T04:34:14;11.50;99.90
70368;DHT22;57789;53.868;10.728;2023-05-10T04:36:40;11.50;99.90
70368;DHT22;57789;53.868;10.728;2023-05-10T04:39:06;11.60;99.90
70368;DHT22;57789;53.868;10.728;2023-05-10T04:41:31;11.70;99.90
70368;DHT22;57789;53.868;10.728;2023-05-10T04:43:57;11.70;99.90
70368;DHT22;57789;53.868;10.728;2023-05-10T04:46:23;11.80;99.90
70368;DHT22;57789;53.868;10.728;2023-05-10T04:48:49;11.80;99.90
70368;DHT22;57789;53.868;10.728;2023-05-10T04:51:14;11.90;99.90
70368;DHT22;57789;53.868;10.728;2023-05-10T04:53:40;11.80;99.90
70368;DHT22;57789;53.868;10.728;2023-05-10T04:56:06;12.00;99.90
70368;DHT22;57789;53.868;10.728;2023-05-10T04:58:32;12.10;99.90
70368;DHT22;57789;53.868;10.728;2023-05-10T05:01:05;12.10;99.90
70368;DHT22;57789;53.868;10.728;2023-05-10T05:03:32;12.10;99.90
70368;DHT22;57789;53.868;10.728;2023-05-10T05:05:58;12.20;99.90
70368;DHT22;57789;53.868;10.728;2023-05-10T05:08:23;12.20;99.90
70368;DHT22;57789;53.868;10.728;2023-05-10T05:10:49;12.30;99.90
70368;DHT22;57789;53.868;10.728;2023-05-10T05:13:19;12.30;99.90
70368;DHT22;57789;53.868;10.728;2023-05-10T05:15:46;12.40;99.90
70368;DHT22;57789;53.868;10.728;2023-05-10T05:18:12;12.40;99.90
70368;DHT22;57789;53.868;10.728;2023-05-10T05:20:37;12.50;99.90
70368;DHT22;57789;53.868;10.728;2023-05-10T05:23:03;12.50;99.90
70368;DHT22;57789;53.868;10.728;2023-05-10T05:25:32;12.50;99.90
70368;DHT22;57789;53.868;10.728;2023-05-10T05:27:57;12.60;99.90
70368;DHT22;57789;53.868;10.728;2023-05-10T05:30:23;12.60;99.90
70368;DHT22;57789;53.868;10.728;2023-05-10T05:32:49;12.60;99.90
70368;DHT22;57789;53.868;10.728;2023-05-10T05:35:14;12.70;99.90
70368;DHT22;57789;53.868;10.728;2023-05-10T05:37:40;12.70;99.90
70368;DHT22;57789;53.868;10.728;2023-05-10T05:40:07;12.70;99.90
70368;DHT22;57789;53.868;10.728;2023-05-10T05:42:33;12.80;99.90
70368;DHT22;57789;53.868;10.728;2023-05-10T05:44:59;12.80;99.90
70368;DHT22;57789;53.868;10.728;2023-05-10T05:47:24;12.90;99.90
70368;DHT22;57789;53.868;10.728;2023-05-10T05:49:50;12.90;99.90
70368;DHT22;57789;53.868;10.728;2023-05-10T05:52:16;13.00;99.90
70368;DHT22;57789;53.868;10.728;2023-05-10T05:54:42;13.10;99.90
70368;DHT22;57789;53.868;10.728;2023-05-10T05:57:08;13.20;99.90
70368;DHT22;57789;53.868;10.728;2023-05-10T05:59:34;13.20;99.90
70368;DHT22;57789;53.868;10.728;2023-05-10T06:02:00;13.30;99.90
70368;DHT22;57789;53.868;10.728;2023-05-10T06:04:26;13.40;99.90
70368;DHT22;57789;53.868;10.728;2023-05-10T06:06:52;13.50;99.90
70368;DHT22;57789;53.868;10.728;2023-05-10T06:09:19;13.50;99.90
70368;DHT22;57789;53.868;10.728;2023-05-10T06:11:45;13.60;99.90
70368;DHT22;57789;53.868;10.728;2023-05-10T06:14:12;13.60;99.90
70368;DHT22;57789;53.868;10.728;2023-05-10T06:16:39;13.60;99.90
70368;DHT22;57789;53.868;10.728;2023-05-10T06:19:04;13.70;99.90
70368;DHT22;57789;53.868;10.728;2023-05-10T06:21:30;13.70;99.90
70368;DHT22;57789;53.868;10.728;2023-05-10T06:23:56;13.80;99.90
70368;DHT22;57789;53.868;10.728;2023-05-10T06:26:22;13.80;99.90
70368;DHT22;57789;53.868;10.728;2023-05-10T06:28:48;13.90;99.90
70368;DHT22;57789;53.868;10.728;2023-05-10T06:31:14;14.00;99.90
70368;DHT22;57789;53.868;10.728;2023-05-10T06:33:40;14.00;99.90
70368;DHT22;57789;53.868;10.728;2023-05-10T06:36:06;14.20;99.90
70368;DHT22;57789;53.868;10.728;2023-05-10T06:38:32;14.30;99.90
70368;DHT22;57789;53.868;10.728;2023-05-10T06:40:57;14.30;99.90
70368;DHT22;57789;53.868;10.728;2023-05-10T06:43:23;14.50;99.90
70368;DHT22;57789;53.868;10.728;2023-05-10T06:45:54;14.50;99.90
70368;DHT22;57789;53.868;10.728;2023-05-10T06:48:20;14.40;99.90
70368;DHT22;57789;53.868;10.728;2023-05-10T06:50:46;14.50;99.90
70368;DHT22;57789;53.868;10.728;2023-05-10T06:53:11;14.60;99.90
70368;DHT22;57789;53.868;10.728;2023-05-10T06:55:39;14.70;99.90
70368;DHT22;57789;53.868;10.728;2023-05-10T06:58:05;14.70;99.90
70368;DHT22;57789;53.868;10.728;2023-05-10T07:00:31;14.80;99.90
70368;DHT22;57789;53.868;10.728;2023-05-10T07:02:57;14.80;99.90
70368;DHT22;57789;53.868;10.728;2023-05-10T07:05:23;14.90;99.90
70368;DHT22;57789;53.868;10.728;2023-05-10T07:07:49;15.00;99.90
70368;DHT22;57789;53.868;10.728;2023-05-10T07:10:15;15.10;99.90
70368;DHT22;57789;53.868;10.728;2023-05-10T07:12:41;15.20;99.90
70368;DHT22;57789;53.868;10.728;2023-05-10T07:15:08;15.30;99.90
70368;DHT22;57789;53.868;10.728;2023-05-10T07:17:34;15.40;99.90
70368;DHT22;57789;53.868;10.728;2023-05-10T07:19:59;15.50;99.90
70368;DHT22;57789;53.868;10.728;2023-05-10T07:22:25;15.30;99.90
70368;DHT22;57789;53.868;10.728;2023-05-10T07:24:51;15.40;99.90
70368;DHT22;57789;53.868;10.728;2023-05-10T07:27:17;15.40;99.90
70368;DHT22;57789;53.868;10.728;2023-05-10T07:29:43;15.50;99.90
70368;DHT22;57789;53.868;10.728;2023-05-10T07:32:09;15.70;99.90
70368;DHT22;57789;53.868;10.728;2023-05-10T07:34:35;15.80;99.90
70368;DHT22;57789;53.868;10.728;2023-05-10T07:37:01;16.00;99.90
70368;DHT22;57789;53.868;10.728;2023-05-10T07:39:27;16.20;99.90
70368;DHT22;57789;53.868;10.728;2023-05-10T07:41:56;16.20;99.90
70368;DHT22;57789;53.868;10.728;2023-05-10T07:44:22;16.30;99.90
70368;DHT22;57789;53.868;10.728;2023-05-10T07:46:48;16.30;99.90
70368;DHT22;57789;53.868;10.728;2023-05-10T07:49:14;16.40;99.90
70368;DHT22;57789;53.868;10.728;2023-05-10T07:51:40;16.50;99.90
70368;DHT22;57789;53.868;10.728;2023-05-10T07:54:06;16.60;99.90
70368;DHT22;57789;53.868;10.728;2023-05-10T07:56:32;16.80;99.90
70368;DHT22;57789;53.868;10.728;2023-05-10T07:59:02;16.90;99.90
70368;DHT22;57789;53.868;10.728;2023-05-10T08:01:33;17.00;99.90
70368;DHT22;57789;53.868;10.728;2023-05-10T08:03:59;17.20;99.90
70368;DHT22;57789;53.868;10.728;2023-05-10T08:06:25;17.20;99.90
70368;DHT22;57789;53.868;10.728;2023-05-10T08:08:52;17.10;99.90
70368;DHT22;57789;53.868;10.728;2023-05-10T08:11:22;17.30;99.90
70368;DHT22;57789;53.868;10.728;2023-05-10T08:13:49;17.40;99.90
70368;DHT22;57789;53.868;10.728;2023-05-10T08:16:16;17.50;99.90
70368;DHT22;57789;53.868;10.728;2023-05-10T08:18:44;17.70;99.90
70368;DHT22;57789;53.868;10.728;2023-05-10T08:21:10;17.40;99.90
70368;DHT22;57789;53.868;10.728;2023-05-10T08:23:37;17.50;99.90
70368;DHT22;57789;53.868;10.728;2023-05-10T08:26:03;17.50;99.90
70368;DHT22;57789;53.868;10.728;2023-05-10T08:28:29;17.60;99.90
70368;DHT22;57789;53.868;10.728;2023-05-10T08:30:55;17.60;99.90
70368;DHT22;57789;53.868;10.728;2023-05-10T08:33:24;17.70;99.90
70368;DHT22;57789;53.868;10.728;2023-05-10T08:35:50;17.80;99.90
70368;DHT22;57789;53.868;10.728;2023-05-10T08:38:18;17.80;99.90
70368;DHT22;57789;53.868;10.728;2023-05-10T08:40:44;17.80;99.90
70368;DHT22;57789;53.868;10.728;2023-05-10T08:43:12;17.80;99.90
70368;DHT22;57789;53.868;10.728;2023-05-10T08:45:42;17.90;99.90
70368;DHT22;57789;53.868;10.728;2023-05-10T08:48:10;18.10;99.90
70368;DHT22;57789;53.868;10.728;2023-05-10T08:50:37;18.40;99.90
70368;DHT22;57789;53.868;10.728;2023-05-10T08:53:12;18.30;99.90
70368;DHT22;57789;53.868;10.728;2023-05-10T08:55:39;18.30;99.90
70368;DHT22;57789;53.868;10.728;2023-05-10T08:58:08;18.50;99.90
70368;DHT22;57789;53.868;10.728;2023-05-10T09:00:37;18.70;99.90
70368;DHT22;57789;53.868;10.728;2023-05-10T09:03:04;18.80;99.90
70368;DHT22;57789;53.868;10.728;2023-05-10T09:05:31;18.80;99.90
70368;DHT22;57789;53.868;10.728;2023-05-10T09:07:57;19.00;99.90
70368;DHT22;57789;53.868;10.728;2023-05-10T09:10:26;19.30;99.90
70368;DHT22;57789;53.868;10.728;2023-05-10T09:12:53;19.50;99.90
70368;DHT22;57789;53.868;10.728;2023-05-10T09:15:21;19.40;99.90
70368;DHT22;57789;53.868;10.728;2023-05-10T09:17:47;19.60;99.90
70368;DHT22;57789;53.868;10.728;2023-05-10T09:20:14;19.90;99.90
70368;DHT22;57789;53.868;10.728;2023-05-10T09:22:40;20.10;99.90
70368;DHT22;57789;53.868;10.728;2023-05-10T09:27:34;20.30;99.90
70368;DHT22;57789;53.868;10.728;2023-05-10T09:30:00;20.40;99.90
70368;DHT22;57789;53.868;10.728;2023-05-10T09:32:45;20.60;99.90
70368;DHT22;57789;53.868;10.728;2023-05-10T09:35:16;20.30;99.90
70368;DHT22;57789;53.868;10.728;2023-05-10T09:37:46;20.10;99.90
70368;DHT22;57789;53.868;10.728;2023-05-10T09:40:20;20.00;99.90
70368;DHT22;57789;53.868;10.728;2023-05-10T09:45:23;20.00;99.90
70368;DHT22;57789;53.868;10.728;2023-05-10T09:47:49;19.90;99.90
70368;DHT22;57789;53.868;10.728;2023-05-10T09:50:15;20.00;99.90
70368;DHT22;57789;53.868;10.728;2023-05-10T09:52:58;20.00;99.90
70368;DHT22;57789;53.868;10.728;2023-05-10T09:55:47;20.00;99.90
70368;DHT22;57789;53.868;10.728;2023-05-10T09:58:15;20.10;99.90
70368;DHT22;57789;53.868;10.728;2023-05-10T10:00:45;20.20;99.90
70368;DHT22;57789;53.868;10.728;2023-05-10T10:03:18;20.40;99.90
70368;DHT22;57789;53.868;10.728;2023-05-10T10:05:45;20.50;99.90
70368;DHT22;57789;53.868;10.728;2023-05-10T10:08:11;20.70;99.90
70368;DHT22;57789;53.868;10.728;2023-05-10T10:10:38;20.70;99.90
70368;DHT22;57789;53.868;10.728;2023-05-10T10:13:07;20.80;99.90
70368;DHT22;57789;53.868;10.728;2023-05-10T10:15:34;21.00;99.90
70368;DHT22;57789;53.868;10.728;2023-05-10T10:18:00;21.60;99.90
70368;DHT22;57789;53.868;10.728;2023-05-10T10:20:27;21.70;99.20
70368;DHT22;57789;53.868;10.728;2023-05-10T10:22:53;21.90;98.20
70368;DHT22;57789;53.868;10.728;2023-05-10T10:25:20;22.10;98.10
70368;DHT22;57789;53.868;10.728;2023-05-10T10:30:28;22.40;97.20
70368;DHT22;57789;53.868;10.728;2023-05-10T10:35:55;22.40;95.60
70368;DHT22;57789;53.868;10.728;2023-05-10T10:38:23;22.30;98.10
70368;DHT22;57789;53.868;10.728;2023-05-10T10:41:10;22.40;97.10
70368;DHT22;57789;53.868;10.728;2023-05-10T10:43:47;21.90;96.80
70368;DHT22;57789;53.868;10.728;2023-05-10T10:46:16;21.80;99.90
70368;DHT22;57789;53.868;10.728;2023-05-10T10:48:50;21.40;98.70
70368;DHT22;57789;53.868;10.728;2023-05-10T10:52:13;21.30;99.60
70368;DHT22;57789;53.868;10.728;2023-05-10T10:54:39;21.30;99.90
70368;DHT22;57789;53.868;10.728;2023-05-10T10:57:11;21.20;99.90
70368;DHT22;57789;53.868;10.728;2023-05-10T10:59:42;20.90;99.90
70368;DHT22;57789;53.868;10.728;2023-05-10T11:02:09;20.80;99.90
70368;DHT22;57789;53.868;10.728;2023-05-10T11:04:42;20.80;99.90
70368;DHT22;57789;53.868;10.728;2023-05-10T11:07:18;21.00;99.90
70368;DHT22;57789;53.868;10.728;2023-05-10T11:09:46;21.00;99.90
70368;DHT22;57789;53.868;10.728;2023-05-10T11:12:12;21.20;99.90
70368;DHT22;57789;53.868;10.728;2023-05-10T11:14:38;21.20;99.90
70368;DHT22;57789;53.868;10.728;2023-05-10T11:17:27;21.40;99.90
70368;DHT22;57789;53.868;10.728;2023-05-10T11:20:10;21.50;99.90
70368;DHT22;57789;53.868;10.728;2023-05-10T11:22:54;21.80;99.90
70368;DHT22;57789;53.868;10.728;2023-05-10T11:25:26;21.90;99.90
70368;DHT22;57789;53.868;10.728;2023-05-10T11:27:52;22.40;99.90
70368;DHT22;57789;53.868;10.728;2023-05-10T11:30:18;22.70;99.90
70368;DHT22;57789;53.868;10.728;2023-05-10T11:32:44;22.60;98.10
70368;DHT22;57789;53.868;10.728;2023-05-10T11:35:14;22.50;98.60
70368;DHT22;57789;53.868;10.728;2023-05-10T11:37:41;22.10;99.80
70368;DHT22;57789;53.868;10.728;2023-05-10T11:40:09;21.70;99.90
70368;DHT22;57789;53.868;10.728;2023-05-10T11:42:38;21.40;99.90
70368;DHT22;57789;53.868;10.728;2023-05-10T11:45:05;21.70;99.90
70368;DHT22;57789;53.868;10.728;2023-05-10T11:47:31;22.00;99.90
70368;DHT22;57789;53.868;10.728;2023-05-10T11:49:57;21.90;99.90
70368;DHT22;57789;53.868;10.728;2023-05-10T11:52:23;22.00;99.90
70368;DHT22;57789;53.868;10.728;2023-05-10T11:54:53;22.10;99.60
70368;DHT22;57789;53.868;10.728;2023-05-10T11:57:19;22.00;99.80
70368;DHT22;57789;53.868;10.728;2023-05-10T11:59:53;22.10;99.90
70368;DHT22;57789;53.868;10.728;2023-05-10T12:02:20;21.70;99.90
70368;DHT22;57789;53.868;10.728;2023-05-10T12:04:46;21.30;99.90
70368;DHT22;57789;53.868;10.728;2023-05-10T12:07:12;21.00;99.90
70368;DHT22;57789;53.868;10.728;2023-05-10T12:09:43;21.10;99.90
70368;DHT22;57789;53.868;10.728;2023-05-10T12:12:09;21.00;99.90
70368;DHT22;57789;53.868;10.728;2023-05-10T12:14:36;21.00;99.90
70368;DHT22;57789;53.868;10.728;2023-05-10T12:17:13;21.00;99.90
70368;DHT22;57789;53.868;10.728;2023-05-10T12:19:43;20.80;99.90
70368;DHT22;57789;53.868;10.728;2023-05-10T12:22:09;20.80;99.90
70368;DHT22;57789;53.868;10.728;2023-05-10T12:24:36;20.80;99.90
70368;DHT22;57789;53.868;10.728;2023-05-10T12:27:08;20.60;99.90
70368;DHT22;57789;53.868;10.728;2023-05-10T12:29:34;20.20;99.90
70368;DHT22;57789;53.868;10.728;2023-05-10T12:32:00;20.30;99.90
70368;DHT22;57789;53.868;10.728;2023-05-10T12:34:27;20.40;99.90
70368;DHT22;57789;53.868;10.728;2023-05-10T12:36:55;20.40;99.90
70368;DHT22;57789;53.868;10.728;2023-05-10T12:39:21;20.20;99.90
70368;DHT22;57789;53.868;10.728;2023-05-10T12:41:47;20.20;99.90
70368;DHT22;57789;53.868;10.728;2023-05-10T12:44:13;20.10;99.90
70368;DHT22;57789;53.868;10.728;2023-05-10T12:46:39;20.20;99.90
70368;DHT22;57789;53.868;10.728;2023-05-10T12:49:07;20.00;99.90
70368;DHT22;57789;53.868;10.728;2023-05-10T12:51:33;19.80;99.90
70368;DHT22;57789;53.868;10.728;2023-05-10T12:53:59;19.40;99.90
70368;DHT22;57789;53.868;10.728;2023-05-10T12:56:25;19.20;99.90
70368;DHT22;57789;53.868;10.728;2023-05-10T12:58:51;19.10;99.90
70368;DHT22;57789;53.868;10.728;2023-05-10T13:01:17;19.10;99.90
70368;DHT22;57789;53.868;10.728;2023-05-10T13:03:43;18.90;99.90
70368;DHT22;57789;53.868;10.728;2023-05-10T13:06:09;18.80;99.90
70368;DHT22;57789;53.868;10.728;2023-05-10T13:08:34;18.50;99.90
70368;DHT22;57789;53.868;10.728;2023-05-10T13:11:01;18.10;99.90
70368;DHT22;57789;53.868;10.728;2023-05-10T13:13:28;17.60;99.90
70368;DHT22;57789;53.868;10.728;2023-05-10T13:15:54;17.40;99.90
70368;DHT22;57789;53.868;10.728;2023-05-10T13:18:20;17.00;99.90
70368;DHT22;57789;53.868;10.728;2023-05-10T13:20:45;16.90;99.90
70368;DHT22;57789;53.868;10.728;2023-05-10T13:23:11;16.70;99.90
70368;DHT22;57789;53.868;10.728;2023-05-10T13:25:38;16.70;99.90
70368;DHT22;57789;53.868;10.728;2023-05-10T13:28:03;16.90;99.90
70368;DHT22;57789;53.868;10.728;2023-05-10T13:30:29;17.30;99.90
70368;DHT22;57789;53.868;10.728;2023-05-10T13:32:55;17.40;99.90
70368;DHT22;57789;53.868;10.728;2023-05-10T13:35:21;17.30;99.90
70368;DHT22;57789;53.868;10.728;2023-05-10T13:37:46;17.10;99.90
70368;DHT22;57789;53.868;10.728;2023-05-10T13:40:12;17.00;99.90
70368;DHT22;57789;53.868;10.728;2023-05-10T13:42:38;17.10;99.90
70368;DHT22;57789;53.868;10.728;2023-05-10T13:45:05;17.30;99.90
70368;DHT22;57789;53.868;10.728;2023-05-10T13:47:31;17.40;99.90
70368;DHT22;57789;53.868;10.728;2023-05-10T13:49:58;17.80;99.90
70368;DHT22;57789;53.868;10.728;2023-05-10T13:52:26;17.90;99.90
70368;DHT22;57789;53.868;10.728;2023-05-10T13:54:52;17.70;99.90
70368;DHT22;57789;53.868;10.728;2023-05-10T13:57:43;17.20;99.90
70368;DHT22;57789;53.868;10.728;2023-05-10T14:00:09;17.10;99.90
70368;DHT22;57789;53.868;10.728;2023-05-10T14:02:35;17.00;99.90
70368;DHT22;57789;53.868;10.728;2023-05-10T14:05:01;16.80;99.90
70368;DHT22;57789;53.868;10.728;2023-05-10T14:07:27;17.00;99.90
70368;DHT22;57789;53.868;10.728;2023-05-10T14:09:53;17.00;99.90
70368;DHT22;57789;53.868;10.728;2023-05-10T14:12:19;16.90;99.90
70368;DHT22;57789;53.868;10.728;2023-05-10T14:14:44;16.80;99.90
70368;DHT22;57789;53.868;10.728;2023-05-10T14:17:10;16.70;99.90
70368;DHT22;57789;53.868;10.728;2023-05-10T14:19:36;16.60;99.90
70368;DHT22;57789;53.868;10.728;2023-05-10T14:22:02;16.60;99.90
70368;DHT22;57789;53.868;10.728;2023-05-10T14:24:28;16.60;99.90
70368;DHT22;57789;53.868;10.728;2023-05-10T14:26:55;16.60;99.90
70368;DHT22;57789;53.868;10.728;2023-05-10T14:29:21;16.70;99.90
70368;DHT22;57789;53.868;10.728;2023-05-10T14:31:47;16.60;99.90
70368;DHT22;57789;53.868;10.728;2023-05-10T14:34:15;16.50;99.90
70368;DHT22;57789;53.868;10.728;2023-05-10T14:36:41;16.60;99.90
70368;DHT22;57789;53.868;10.728;2023-05-10T14:39:06;16.60;99.90
70368;DHT22;57789;53.868;10.728;2023-05-10T14:41:33;16.60;99.90
70368;DHT22;57789;53.868;10.728;2023-05-10T14:44:02;16.60;99.90
70368;DHT22;57789;53.868;10.728;2023-05-10T14:46:28;16.60;99.90
70368;DHT22;57789;53.868;10.728;2023-05-10T14:48:55;16.50;99.90
70368;DHT22;57789;53.868;10.728;2023-05-10T14:51:21;16.60;99.90
70368;DHT22;57789;53.868;10.728;2023-05-10T14:54:13;16.60;99.90
70368;DHT22;57789;53.868;10.728;2023-05-10T14:56:59;16.70;99.90
70368;DHT22;57789;53.868;10.728;2023-05-10T14:59:25;16.90;99.90
70368;DHT22;57789;53.868;10.728;2023-05-10T15:01:51;17.10;99.90
70368;DHT22;57789;53.868;10.728;2023-05-10T15:04:17;17.20;99.90
70368;DHT22;57789;53.868;10.728;2023-05-10T15:06:43;17.20;99.90
70368;DHT22;57789;53.868;10.728;2023-05-10T15:09:08;17.30;99.90
70368;DHT22;57789;53.868;10.728;2023-05-10T15:11:35;17.10;99.90
70368;DHT22;57789;53.868;10.728;2023-05-10T15:14:01;17.00;99.90
70368;DHT22;57789;53.868;10.728;2023-05-10T15:16:27;16.90;99.90
70368;DHT22;57789;53.868;10.728;2023-05-10T15:18:53;16.90;99.90
70368;DHT22;57789;53.868;10.728;2023-05-10T15:21:19;16.70;99.90
70368;DHT22;57789;53.868;10.728;2023-05-10T15:23:45;16.70;99.90
70368;DHT22;57789;53.868;10.728;2023-05-10T15:26:10;16.70;99.90
70368;DHT22;57789;53.868;10.728;2023-05-10T15:28:36;16.70;99.90
70368;DHT22;57789;53.868;10.728;2023-05-10T15:31:02;16.60;99.90
70368;DHT22;57789;53.868;10.728;2023-05-10T15:33:28;16.50;99.90
70368;DHT22;57789;53.868;10.728;2023-05-10T15:35:54;16.40;99.90
70368;DHT22;57789;53.868;10.728;2023-05-10T15:38:20;16.40;99.90